Terminal Aerodrome Forecast
Issued by NWS Duluth, MN

Home | Current Version | Previous Version | Text Only | Print | Product List | Glossary On
Versions: 1 2 3 4 5 6 7 8 9 10 11 12 13 14 15 16 17 18 19 20 21 22 23 24 25 26 27 28
000
FTUS43 KDLH 251539 AAC
TAFDLH
TAF AMD
KDLH 251539Z 2516/2612 09010G24KT 1/4SM FG VV002
     FM251800 10012KT 2SM BR OVC006
     FM251900 10013G18KT P6SM SCT015 BKN100
     FM252200 09012KT P6SM VCSH SCT012 BKN080
     FM260000 09014G18KT 5SM -RA BR OVC010
     FM260300 10012KT 1SM -RA BR OVC008
     FM260600 07008KT 1/2SM FG VCSH OVC002=

USA.gov is the U.S. government's official web portal to all federal, state and local government web resources and services.